createdAt,value
2019-05-25T01:32:53.267Z,99.90
2019-05-25T03:59:52.928Z,99.30
2019-05-25T04:02:44.039Z,99.60
2019-05-25T04:10:46.218Z,99.90
2019-05-25T04:19:02.180Z,99.90
2019-05-25T04:21:31.312Z,99.90
2019-05-25T04:24:02.598Z,99.90
2019-05-25T04:26:32.185Z,99.90
2019-05-25T04:29:09.520Z,99.90
2019-05-25T05:22:05.983Z,99.90
2019-05-25T05:24:54.613Z,99.90
2019-05-25T05:27:32.177Z,99.90
2019-05-25T05:30:05.637Z,99.90
2019-05-25T05:32:38.249Z,99.90
2019-05-25T05:35:21.510Z,99.90
2019-05-25T05:38:08.978Z,99.90
2019-05-25T05:40:44.653Z,99.90
2019-05-25T05:43:24.327Z,99.90
2019-05-25T05:46:00.328Z,99.90
2019-05-25T06:00:23.615Z,99.90
2019-05-25T06:46:39.870Z,99.90
2019-05-25T06:49:09.003Z,99.90
2019-05-25T06:51:38.123Z,99.90
2019-05-25T06:54:07.215Z,99.90
2019-05-25T06:56:36.416Z,99.90
2019-05-25T06:59:05.583Z,99.90
2019-05-25T07:01:34.682Z,99.90
2019-05-25T07:04:03.863Z,99.90
2019-05-25T07:06:32.957Z,99.90
2019-05-25T07:09:02.044Z,99.90
2019-05-25T07:11:31.183Z,99.90
2019-05-25T07:14:00.318Z,99.90
2019-05-25T07:16:29.384Z,99.90
2019-05-25T07:18:58.467Z,99.90
2019-05-25T07:21:28.488Z,99.90
2019-05-25T07:23:57.568Z,99.90
2019-05-25T07:26:26.893Z,99.90
2019-05-25T07:28:56.043Z,99.90
2019-05-25T07:31:25.477Z,99.90
2019-05-25T07:33:54.559Z,99.90
2019-05-25T07:36:23.656Z,99.90
2019-05-25T07:38:53.656Z,99.90
2019-05-25T07:41:22.770Z,99.90
2019-05-25T07:43:51.924Z,99.90
2019-05-25T07:46:20.997Z,99.90
2019-05-25T07:48:50.530Z,99.90
2019-05-25T07:51:19.614Z,99.90
2019-05-25T07:53:48.708Z,99.90
2019-05-25T07:56:17.833Z,99.90
2019-05-25T07:58:46.910Z,99.90
2019-05-25T08:01:15.972Z,99.90
2019-05-25T08:03:45.098Z,99.90
2019-05-25T08:06:14.237Z,99.90
2019-05-25T08:08:43.309Z,99.90
2019-05-25T08:11:12.494Z,99.90
2019-05-25T08:13:41.587Z,99.90
2019-05-25T08:16:10.695Z,99.90
2019-05-25T08:18:39.831Z,99.90
2019-05-25T08:21:09.036Z,99.90
2019-05-25T08:23:38.111Z,99.90
2019-05-25T08:26:07.212Z,99.80
2019-05-25T08:28:36.332Z,99.40
2019-05-25T08:31:05.483Z,99.00
2019-05-25T08:33:40.621Z,99.90
2019-05-25T08:36:09.771Z,99.10
2019-05-25T08:38:38.851Z,98.20
2019-05-25T08:41:08.022Z,98.40
2019-05-25T08:43:37.159Z,97.70
2019-05-25T08:46:06.437Z,97.90
2019-05-25T08:48:35.542Z,97.70
2019-05-25T09:02:09.821Z,96.70
2019-05-25T09:57:58.173Z,91.70
2019-05-25T10:00:31.392Z,93.10
2019-05-25T10:03:00.616Z,92.50
2019-05-25T22:25:09.654Z,99.90
